sensor_id;sensor_type;location;lat;lon;timestamp;pressure;altitude;pressure_sealevel;temperature;humidity
39267;BME280;24967;51.154;13.812;2022-10-31T00:00:17;99893.38;;;13.14;77.16
39267;BME280;24967;51.154;13.812;2022-10-31T00:02:45;99884.16;;;13.09;76.92
39267;BME280;24967;51.154;13.812;2022-10-31T00:05:11;99888.16;;;13.04;76.41
39267;BME280;24967;51.154;13.812;2022-10-31T00:07:38;99889.28;;;13.02;76.73
39267;BME280;24967;51.154;13.812;2022-10-31T00:10:06;99888.28;;;13.03;76.66
39267;BME280;24967;51.154;13.812;2022-10-31T00:12:32;99891.44;;;12.98;77.12
39267;BME280;24967;51.154;13.812;2022-10-31T00:14:59;99890.44;;;12.99;77.40
39267;BME280;24967;51.154;13.812;2022-10-31T00:17:26;99884.94;;;13.01;77.47
39267;BME280;24967;51.154;13.812;2022-10-31T00:19:54;99883.78;;;13.03;77.39
39267;BME280;24967;51.154;13.812;2022-10-31T00:22:20;99890.50;;;13.07;77.54
39267;BME280;24967;51.154;13.812;2022-10-31T00:24:47;99882.50;;;13.07;77.65
39267;BME280;24967;51.154;13.812;2022-10-31T00:27:13;99887.78;;;12.99;77.86
39267;BME280;24967;51.154;13.812;2022-10-31T00:29:40;99898.97;;;13.03;78.22
39267;BME280;24967;51.154;13.812;2022-10-31T00:32:06;99891.97;;;13.02;78.05
39267;BME280;24967;51.154;13.812;2022-10-31T00:34:33;99892.78;;;13.02;77.79
39267;BME280;24967;51.154;13.812;2022-10-31T00:37:01;99898.81;;;13.04;77.75
39267;BME280;24967;51.154;13.812;2022-10-31T00:39:27;99898.81;;;13.04;77.66
39267;BME280;24967;51.154;13.812;2022-10-31T00:41:54;99900.94;;;13.01;77.87
39267;BME280;24967;51.154;13.812;2022-10-31T00:44:20;99893.09;;;12.99;77.87
39267;BME280;24967;51.154;13.812;2022-10-31T00:46:47;99898.97;;;13.03;77.68
39267;BME280;24967;51.154;13.812;2022-10-31T00:49:14;99904.31;;;13.03;77.51
39267;BME280;24967;51.154;13.812;2022-10-31T00:51:40;99896.16;;;13.04;77.04
39267;BME280;24967;51.154;13.812;2022-10-31T00:54:08;99897.44;;;13.00;76.94
39267;BME280;24967;51.154;13.812;2022-10-31T00:56:35;99900.28;;;12.99;76.11
39267;BME280;24967;51.154;13.812;2022-10-31T00:59:02;99899.91;;;12.94;76.06
39267;BME280;24967;51.154;13.812;2022-10-31T01:01:28;99891.22;;;12.92;75.63
39267;BME280;24967;51.154;13.812;2022-10-31T01:03:55;99894.19;;;12.89;75.34
39267;BME280;24967;51.154;13.812;2022-10-31T01:06:22;99896.72;;;12.90;75.51
39267;BME280;24967;51.154;13.812;2022-10-31T01:08:49;99902.75;;;12.92;75.44
39267;BME280;24967;51.154;13.812;2022-10-31T01:11:19;99900.84;;;12.84;75.46
39267;BME280;24967;51.154;13.812;2022-10-31T01:13:46;99898.66;;;12.80;76.14
39267;BME280;24967;51.154;13.812;2022-10-31T01:16:16;99905.16;;;12.77;76.10
39267;BME280;24967;51.154;13.812;2022-10-31T01:18:44;99904.06;;;12.70;76.01
39267;BME280;24967;51.154;13.812;2022-10-31T01:21:12;99906.59;;;12.72;76.26
39267;BME280;24967;51.154;13.812;2022-10-31T01:23:39;99905.22;;;12.68;76.13
39267;BME280;24967;51.154;13.812;2022-10-31T01:26:08;99907.06;;;12.67;76.57
39267;BME280;24967;51.154;13.812;2022-10-31T01:28:38;99906.22;;;12.67;76.56
39267;BME280;24967;51.154;13.812;2022-10-31T01:31:07;99905.53;;;12.65;76.67
39267;BME280;24967;51.154;13.812;2022-10-31T01:33:34;99910.34;;;12.61;76.90
39267;BME280;24967;51.154;13.812;2022-10-31T01:36:10;99901.88;;;12.66;77.13
39267;BME280;24967;51.154;13.812;2022-10-31T01:38:37;99906.91;;;12.69;77.18
39267;BME280;24967;51.154;13.812;2022-10-31T01:41:04;99902.72;;;12.66;77.14
39267;BME280;24967;51.154;13.812;2022-10-31T01:43:44;99901.38;;;12.62;76.93
39267;BME280;24967;51.154;13.812;2022-10-31T01:46:10;99900.81;;;12.58;77.14
39267;BME280;24967;51.154;13.812;2022-10-31T01:48:38;99905.69;;;12.63;77.50
39267;BME280;24967;51.154;13.812;2022-10-31T01:51:06;99908.50;;;12.61;76.99
39267;BME280;24967;51.154;13.812;2022-10-31T01:53:35;99906.22;;;12.67;76.83
39267;BME280;24967;51.154;13.812;2022-10-31T01:56:02;99914.22;;;12.67;76.59
39267;BME280;24967;51.154;13.812;2022-10-31T01:58:30;99906.53;;;12.64;76.93
39267;BME280;24967;51.154;13.812;2022-10-31T02:01:00;99901.97;;;12.56;77.46
39267;BME280;24967;51.154;13.812;2022-10-31T02:03:28;99906.75;;;12.52;78.00
39267;BME280;24967;51.154;13.812;2022-10-31T02:05:57;99904.41;;;12.49;78.85
39267;BME280;24967;51.154;13.812;2022-10-31T02:08:27;99900.28;;;12.55;78.51
39267;BME280;24967;51.154;13.812;2022-10-31T02:10:54;99901.81;;;12.57;78.74
39267;BME280;24967;51.154;13.812;2022-10-31T02:13:22;99906.75;;;12.52;78.26
39267;BME280;24967;51.154;13.812;2022-10-31T02:15:52;99911.25;;;12.52;78.59
39267;BME280;24967;51.154;13.812;2022-10-31T02:18:22;99905.63;;;12.55;78.40
39267;BME280;24967;51.154;13.812;2022-10-31T02:20:57;99910.59;;;12.50;78.29
39267;BME280;24967;51.154;13.812;2022-10-31T02:23:42;99914.31;;;12.39;78.90
39267;BME280;24967;51.154;13.812;2022-10-31T02:26:31;99909.53;;;12.43;79.40
39267;BME280;24967;51.154;13.812;2022-10-31T02:29:28;99925.69;;;12.41;80.17
39267;BME280;24967;51.154;13.812;2022-10-31T02:32:03;99922.72;;;12.44;79.94
39267;BME280;24967;51.154;13.812;2022-10-31T02:34:36;99922.72;;;12.44;80.39
39267;BME280;24967;51.154;13.812;2022-10-31T02:37:09;99916.38;;;12.45;80.54
39267;BME280;24967;51.154;13.812;2022-10-31T02:39:44;99925.91;;;12.48;80.08
39267;BME280;24967;51.154;13.812;2022-10-31T02:42:16;99923.56;;;12.45;80.70
39267;BME280;24967;51.154;13.812;2022-10-31T02:44:49;99931.47;;;12.54;79.94
39267;BME280;24967;51.154;13.812;2022-10-31T02:47:22;99927.88;;;12.64;79.50
39267;BME280;24967;51.154;13.812;2022-10-31T02:49:53;99927.41;;;12.68;79.20
39267;BME280;24967;51.154;13.812;2022-10-31T02:52:25;99931.38;;;12.64;78.91
39267;BME280;24967;51.154;13.812;2022-10-31T02:58:14;99930.00;;;12.60;78.41
39267;BME280;24967;51.154;13.812;2022-10-31T03:00:48;99932.50;;;12.61;78.73
39267;BME280;24967;51.154;13.812;2022-10-31T03:03:26;99929.31;;;12.58;78.96
39267;BME280;24967;51.154;13.812;2022-10-31T03:05:59;99925.81;;;12.57;79.15
39267;BME280;24967;51.154;13.812;2022-10-31T03:08:31;99937.09;;;12.51;79.64
39267;BME280;24967;51.154;13.812;2022-10-31T03:11:03;99937.47;;;12.56;79.48
39267;BME280;24967;51.154;13.812;2022-10-31T03:13:34;99932.97;;;12.57;79.68
39267;BME280;24967;51.154;13.812;2022-10-31T03:16:06;99938.16;;;12.58;79.25
39267;BME280;24967;51.154;13.812;2022-10-31T03:18:37;99938.00;;;12.78;78.28
39267;BME280;24967;51.154;13.812;2022-10-31T03:21:06;99937.41;;;12.66;76.91
39267;BME280;24967;51.154;13.812;2022-10-31T03:23:36;99939.16;;;12.57;77.16
39267;BME280;24967;51.154;13.812;2022-10-31T03:26:06;99932.81;;;12.58;76.76
39267;BME280;24967;51.154;13.812;2022-10-31T03:28:36;99942.00;;;12.56;76.88
39267;BME280;24967;51.154;13.812;2022-10-31T03:31:06;99934.28;;;12.53;76.70
39267;BME280;24967;51.154;13.812;2022-10-31T03:33:37;99930.75;;;12.52;77.03
39267;BME280;24967;51.154;13.812;2022-10-31T03:36:06;99941.13;;;12.55;76.73
39267;BME280;24967;51.154;13.812;2022-10-31T03:38:35;99946.25;;;12.49;77.04
39267;BME280;24967;51.154;13.812;2022-10-31T03:41:03;99946.47;;;12.55;77.30
39267;BME280;24967;51.154;13.812;2022-10-31T03:43:33;99951.13;;;12.71;76.60
39267;BME280;24967;51.154;13.812;2022-10-31T03:46:04;99953.19;;;12.59;76.69
39267;BME280;24967;51.154;13.812;2022-10-31T03:48:31;99947.97;;;12.58;76.97
39267;BME280;24967;51.154;13.812;2022-10-31T03:51:06;99948.19;;;12.65;77.05
39267;BME280;24967;51.154;13.812;2022-10-31T03:53:40;99951.66;;;12.57;76.97
39267;BME280;24967;51.154;13.812;2022-10-31T03:56:12;99953.19;;;12.59;77.34
39267;BME280;24967;51.154;13.812;2022-10-31T03:58:46;99948.75;;;12.68;77.04
39267;BME280;24967;51.154;13.812;2022-10-31T04:01:15;99951.19;;;12.61;77.26
39267;BME280;24967;51.154;13.812;2022-10-31T04:03:44;99953.84;;;12.61;77.17
39267;BME280;24967;51.154;13.812;2022-10-31T04:06:14;99948.06;;;12.66;76.89
39267;BME280;24967;51.154;13.812;2022-10-31T04:08:46;99954.22;;;12.67;76.78
39267;BME280;24967;51.154;13.812;2022-10-31T04:11:16;99962.41;;;12.65;76.88
39267;BME280;24967;51.154;13.812;2022-10-31T04:13:46;99963.47;;;12.54;77.32
39267;BME280;24967;51.154;13.812;2022-10-31T04:16:14;99958.22;;;12.63;77.70
39267;BME280;24967;51.154;13.812;2022-10-31T04:18:41;99955.38;;;12.64;77.73
39267;BME280;24967;51.154;13.812;2022-10-31T04:21:08;99959.25;;;12.70;77.12
39267;BME280;24967;51.154;13.812;2022-10-31T04:23:36;99957.13;;;12.73;77.21
39267;BME280;24967;51.154;13.812;2022-10-31T04:26:03;99964.81;;;12.76;77.18
39267;BME280;24967;51.154;13.812;2022-10-31T04:28:29;99961.09;;;12.69;77.00
39267;BME280;24967;51.154;13.812;2022-10-31T04:30:58;99966.44;;;12.69;76.67
39267;BME280;24967;51.154;13.812;2022-10-31T04:33:24;99963.38;;;12.64;76.52
39267;BME280;24967;51.154;13.812;2022-10-31T04:35:51;99961.53;;;12.65;76.45
39267;BME280;24967;51.154;13.812;2022-10-31T04:38:17;99960.88;;;12.63;76.54
39267;BME280;24967;51.154;13.812;2022-10-31T04:40:46;99970.31;;;12.57;76.53
39267;BME280;24967;51.154;13.812;2022-10-31T04:43:12;99967.97;;;12.54;76.79
39267;BME280;24967;51.154;13.812;2022-10-31T04:45:39;99968.97;;;12.53;76.38
39267;BME280;24967;51.154;13.812;2022-10-31T04:48:05;99970.25;;;12.49;76.74
39267;BME280;24967;51.154;13.812;2022-10-31T04:50:32;99966.75;;;12.48;76.32
39267;BME280;24967;51.154;13.812;2022-10-31T04:52:59;99965.91;;;12.48;76.31
39267;BME280;24967;51.154;13.812;2022-10-31T04:55:25;99975.44;;;12.50;76.44
39267;BME280;24967;51.154;13.812;2022-10-31T04:57:53;99973.91;;;12.48;76.36
39267;BME280;24967;51.154;13.812;2022-10-31T05:00:21;99971.38;;;12.46;76.04
39267;BME280;24967;51.154;13.812;2022-10-31T05:02:49;99969.88;;;12.44;75.80
39267;BME280;24967;51.154;13.812;2022-10-31T05:05:18;99980.16;;;12.38;75.67
39267;BME280;24967;51.154;13.812;2022-10-31T05:07:46;99972.75;;;12.32;75.39
39267;BME280;24967;51.154;13.812;2022-10-31T05:10:16;99970.38;;;12.29;75.36
39267;BME280;24967;51.154;13.812;2022-10-31T05:12:46;99969.69;;;12.27;75.34
39267;BME280;24967;51.154;13.812;2022-10-31T05:15:16;99979.13;;;12.22;75.00
39267;BME280;24967;51.154;13.812;2022-10-31T05:17:43;99974.94;;;12.19;74.89
39267;BME280;24967;51.154;13.812;2022-10-31T05:20:10;99975.22;;;12.16;75.10
39267;BME280;24967;51.154;13.812;2022-10-31T05:22:41;99978.19;;;12.13;75.15
39267;BME280;24967;51.154;13.812;2022-10-31T05:25:08;99981.31;;;12.08;74.23
39267;BME280;24967;51.154;13.812;2022-10-31T05:27:34;99983.06;;;12.00;74.50
39267;BME280;24967;51.154;13.812;2022-10-31T05:30:01;99970.88;;;11.97;74.58
39267;BME280;24967;51.154;13.812;2022-10-31T05:32:29;99976.88;;;11.72;73.67
39267;BME280;24967;51.154;13.812;2022-10-31T05:34:56;99980.38;;;11.72;73.56
39267;BME280;24967;51.154;13.812;2022-10-31T05:37:22;99986.13;;;11.67;73.71
39267;BME280;24967;51.154;13.812;2022-10-31T05:39:49;99983.91;;;11.63;73.93
39267;BME280;24967;51.154;13.812;2022-10-31T05:42:15;99988.25;;;11.64;73.98
39267;BME280;24967;51.154;13.812;2022-10-31T05:44:42;99990.13;;;11.54;74.22
39267;BME280;24967;51.154;13.812;2022-10-31T05:47:08;99982.53;;;11.49;73.91
39267;BME280;24967;51.154;13.812;2022-10-31T05:49:36;99995.19;;;11.47;73.68
39267;BME280;24967;51.154;13.812;2022-10-31T05:52:03;99990.44;;;11.41;73.40
39267;BME280;24967;51.154;13.812;2022-10-31T05:54:30;99991.84;;;11.35;72.80
39267;BME280;24967;51.154;13.812;2022-10-31T05:56:57;99990.59;;;11.30;72.82
39267;BME280;24967;51.154;13.812;2022-10-31T05:59:23;99997.06;;;11.27;72.75
39267;BME280;24967;51.154;13.812;2022-10-31T06:01:50;99998.03;;;11.26;72.78
39267;BME280;24967;51.154;13.812;2022-10-31T06:04:16;99993.28;;;11.20;73.09
39267;BME280;24967;51.154;13.812;2022-10-31T06:06:44;99998.91;;;11.17;73.48
39267;BME280;24967;51.154;13.812;2022-10-31T06:09:11;100007.19;;;11.14;73.48
39267;BME280;24967;51.154;13.812;2022-10-31T06:11:38;100006.03;;;11.07;74.09
39267;BME280;24967;51.154;13.812;2022-10-31T06:14:05;100014.84;;;11.07;74.18
39267;BME280;24967;51.154;13.812;2022-10-31T06:16:31;100014.72;;;11.09;74.38
39267;BME280;24967;51.154;13.812;2022-10-31T06:18:59;100009.25;;;11.10;74.28
39267;BME280;24967;51.154;13.812;2022-10-31T06:21:25;100020.19;;;11.07;74.67
39267;BME280;24967;51.154;13.812;2022-10-31T06:23:53;100015.03;;;11.06;74.73
39267;BME280;24967;51.154;13.812;2022-10-31T06:26:20;100019.06;;;11.10;75.06
39267;BME280;24967;51.154;13.812;2022-10-31T06:28:46;100025.22;;;11.10;75.09
39267;BME280;24967;51.154;13.812;2022-10-31T06:31:13;100033.06;;;11.12;75.13
39267;BME280;24967;51.154;13.812;2022-10-31T06:33:40;100020.75;;;11.11;75.45
39267;BME280;24967;51.154;13.812;2022-10-31T06:36:08;100022.97;;;11.15;75.59
39267;BME280;24967;51.154;13.812;2022-10-31T06:38:35;100035.75;;;11.02;75.97
39267;BME280;24967;51.154;13.812;2022-10-31T06:41:04;100039.38;;;11.11;75.77
39267;BME280;24967;51.154;13.812;2022-10-31T06:43:31;100039.25;;;11.03;75.14
39267;BME280;24967;51.154;13.812;2022-10-31T06:46:02;100041.91;;;11.03;75.33
39267;BME280;24967;51.154;13.812;2022-10-31T06:48:28;100047.22;;;11.03;75.30
39267;BME280;24967;51.154;13.812;2022-10-31T06:50:57;100049.31;;;11.09;75.36
39267;BME280;24967;51.154;13.812;2022-10-31T06:53:24;100045.41;;;11.03;75.94
39267;BME280;24967;51.154;13.812;2022-10-31T06:55:50;100048.50;;;11.08;76.66
39267;BME280;24967;51.154;13.812;2022-10-31T06:58:18;100052.41;;;11.04;77.47
39267;BME280;24967;51.154;13.812;2022-10-31T07:00:45;100057.44;;;11.07;78.91
39267;BME280;24967;51.154;13.812;2022-10-31T07:03:12;100057.31;;;11.09;80.09
39267;BME280;24967;51.154;13.812;2022-10-31T07:05:41;100065.84;;;11.12;81.03
39267;BME280;24967;51.154;13.812;2022-10-31T07:08:10;100060.78;;;11.19;81.29
39267;BME280;24967;51.154;13.812;2022-10-31T07:10:40;100053.34;;;11.32;81.52
39267;BME280;24967;51.154;13.812;2022-10-31T07:13:10;100063.56;;;11.37;82.61
39267;BME280;24967;51.154;13.812;2022-10-31T07:15:39;100061.00;;;11.55;82.63
39267;BME280;24967;51.154;13.812;2022-10-31T07:18:08;100062.69;;;11.56;83.06
39267;BME280;24967;51.154;13.812;2022-10-31T07:20:35;100066.31;;;11.64;83.25
39267;BME280;24967;51.154;13.812;2022-10-31T07:23:02;100066.59;;;11.71;83.67
39267;BME280;24967;51.154;13.812;2022-10-31T07:25:29;100074.00;;;11.77;84.55
39267;BME280;24967;51.154;13.812;2022-10-31T07:27:56;100060.09;;;11.93;84.39
39267;BME280;24967;51.154;13.812;2022-10-31T07:30:22;100064.00;;;11.99;85.23
39267;BME280;24967;51.154;13.812;2022-10-31T07:32:50;100064.34;;;12.13;85.11
39267;BME280;24967;51.154;13.812;2022-10-31T07:35:19;100066.13;;;12.23;85.18
39267;BME280;24967;51.154;13.812;2022-10-31T07:37:46;100064.56;;;12.48;84.39
39267;BME280;24967;51.154;13.812;2022-10-31T07:40:13;100067.25;;;12.66;83.61
39267;BME280;24967;51.154;13.812;2022-10-31T07:42:41;100064.59;;;12.83;83.17
39267;BME280;24967;51.154;13.812;2022-10-31T07:45:09;100067.56;;;12.98;82.62
39267;BME280;24967;51.154;13.812;2022-10-31T07:47:39;100076.47;;;13.07;82.47
39267;BME280;24967;51.154;13.812;2022-10-31T07:50:09;100070.53;;;13.13;82.67
39267;BME280;24967;51.154;13.812;2022-10-31T07:52:36;100068.63;;;13.23;82.49
39267;BME280;24967;51.154;13.812;2022-10-31T07:55:03;100071.38;;;13.32;82.92
39267;BME280;24967;51.154;13.812;2022-10-31T07:57:30;100072.63;;;13.45;82.44
39267;BME280;24967;51.154;13.812;2022-10-31T07:59:56;100069.22;;;13.61;82.22
39267;BME280;24967;51.154;13.812;2022-10-31T08:02:24;100068.84;;;13.74;82.50
39267;BME280;24967;51.154;13.812;2022-10-31T08:04:51;100075.78;;;13.93;81.68
39267;BME280;24967;51.154;13.812;2022-10-31T08:07:19;100068.97;;;14.07;81.79
39267;BME280;24967;51.154;13.812;2022-10-31T08:09:45;100064.59;;;14.32;81.18
39267;BME280;24967;51.154;13.812;2022-10-31T08:12:12;100076.47;;;14.37;80.45
39267;BME280;24967;51.154;13.812;2022-10-31T08:14:39;100075.19;;;14.50;80.34
39267;BME280;24967;51.154;13.812;2022-10-31T08:17:05;100072.50;;;14.50;80.73
39267;BME280;24967;51.154;13.812;2022-10-31T08:19:32;100073.25;;;14.68;78.42
39267;BME280;24967;51.154;13.812;2022-10-31T08:21:58;100075.09;;;14.76;78.21
39267;BME280;24967;51.154;13.812;2022-10-31T08:24:27;100079.97;;;14.97;77.78
39267;BME280;24967;51.154;13.812;2022-10-31T08:26:53;100073.63;;;15.06;76.53
39267;BME280;24967;51.154;13.812;2022-10-31T08:29:20;100065.59;;;15.14;77.27
39267;BME280;24967;51.154;13.812;2022-10-31T08:31:47;100072.63;;;15.23;76.94
39267;BME280;24967;51.154;13.812;2022-10-31T08:34:13;100074.63;;;15.54;76.44
39267;BME280;24967;51.154;13.812;2022-10-31T08:36:40;100072.94;;;15.45;75.97
39267;BME280;24967;51.154;13.812;2022-10-31T08:39:08;100069.91;;;15.80;76.02
39267;BME280;24967;51.154;13.812;2022-10-31T08:41:36;100068.88;;;15.90;77.53
39267;BME280;24967;51.154;13.812;2022-10-31T08:44:03;100065.28;;;16.06;76.30
39267;BME280;24967;51.154;13.812;2022-10-31T08:46:29;100069.81;;;16.13;76.46
39267;BME280;24967;51.154;13.812;2022-10-31T08:48:57;100063.22;;;16.24;74.40
39267;BME280;24967;51.154;13.812;2022-10-31T08:51:23;100064.56;;;16.59;71.56
39267;BME280;24967;51.154;13.812;2022-10-31T08:53:50;100065.94;;;16.55;71.85
39267;BME280;24967;51.154;13.812;2022-10-31T08:56:16;100067.22;;;16.59;69.56
39267;BME280;24967;51.154;13.812;2022-10-31T08:58:44;100061.78;;;16.76;71.74
39267;BME280;24967;51.154;13.812;2022-10-31T09:01:11;100064.91;;;16.87;70.94
39267;BME280;24967;51.154;13.812;2022-10-31T09:03:37;100069.25;;;17.11;68.64
39267;BME280;24967;51.154;13.812;2022-10-31T09:06:05;100068.38;;;17.19;70.16
39267;BME280;24967;51.154;13.812;2022-10-31T09:08:37;100065.13;;;17.24;72.89
39267;BME280;24967;51.154;13.812;2022-10-31T09:11:04;100063.50;;;17.37;72.80
39267;BME280;24967;51.154;13.812;2022-10-31T09:13:31;100072.81;;;17.65;70.35
39267;BME280;24967;51.154;13.812;2022-10-31T09:16:00;100067.94;;;17.83;70.62
39267;BME280;24967;51.154;13.812;2022-10-31T09:18:26;100078.16;;;18.02;69.80
39267;BME280;24967;51.154;13.812;2022-10-31T09:20:54;100080.75;;;18.11;69.80
39267;BME280;24967;51.154;13.812;2022-10-31T09:23:23;100074.16;;;18.13;68.94
39267;BME280;24967;51.154;13.812;2022-10-31T09:25:51;100077.69;;;18.28;72.93
39267;BME280;24967;51.154;13.812;2022-10-31T09:28:20;100078.47;;;18.44;67.55
39267;BME280;24967;51.154;13.812;2022-10-31T09:30:48;100079.94;;;18.61;67.18
39267;BME280;24967;51.154;13.812;2022-10-31T09:33:16;100075.38;;;18.76;64.70
39267;BME280;24967;51.154;13.812;2022-10-31T09:35:43;100077.25;;;18.76;66.18
39267;BME280;24967;51.154;13.812;2022-10-31T09:38:11;100069.72;;;18.93;63.11
39267;BME280;24967;51.154;13.812;2022-10-31T09:40:41;100079.28;;;18.95;63.70
39267;BME280;24967;51.154;13.812;2022-10-31T09:43:14;100074.72;;;19.17;65.10
39267;BME280;24967;51.154;13.812;2022-10-31T09:45:51;100080.44;;;19.08;67.88
39267;BME280;24967;51.154;13.812;2022-10-31T09:48:40;100075.16;;;19.21;62.09
39267;BME280;24967;51.154;13.812;2022-10-31T09:51:12;100069.88;;;19.56;61.93
39267;BME280;24967;51.154;13.812;2022-10-31T09:53:43;100070.91;;;19.55;63.66
39267;BME280;24967;51.154;13.812;2022-10-31T09:56:13;100077.69;;;19.51;63.53
39267;BME280;24967;51.154;13.812;2022-10-31T09:58:44;100078.50;;;19.73;61.77
39267;BME280;24967;51.154;13.812;2022-10-31T10:01:22;100069.41;;;19.74;61.08
39267;BME280;24967;51.154;13.812;2022-10-31T10:03:55;100079.03;;;19.61;61.94
39267;BME280;24967;51.154;13.812;2022-10-31T10:06:25;100072.56;;;19.84;61.82
39267;BME280;24967;51.154;13.812;2022-10-31T10:08:53;100068.66;;;19.86;60.10
39267;BME280;24967;51.154;13.812;2022-10-31T10:11:48;100067.44;;;19.89;61.04
39267;BME280;24967;51.154;13.812;2022-10-31T10:14:33;100070.00;;;20.04;60.68
39267;BME280;24967;51.154;13.812;2022-10-31T10:17:13;100062.88;;;19.96;63.68
39267;BME280;24967;51.154;13.812;2022-10-31T10:19:53;100058.16;;;20.05;62.54
39267;BME280;24967;51.154;13.812;2022-10-31T10:22:30;100059.66;;;20.14;64.78
39267;BME280;24967;51.154;13.812;2022-10-31T10:25:09;100053.72;;;20.32;65.08
39267;BME280;24967;51.154;13.812;2022-10-31T10:27:47;100043.78;;;20.39;62.37
39267;BME280;24967;51.154;13.812;2022-10-31T10:30:18;100046.94;;;20.49;60.64
39267;BME280;24967;51.154;13.812;2022-10-31T10:32:48;100040.44;;;20.92;60.65
39267;BME280;24967;51.154;13.812;2022-10-31T10:35:19;100048.06;;;20.68;60.78
39267;BME280;24967;51.154;13.812;2022-10-31T10:37:46;100053.91;;;20.78;60.00
39267;BME280;24967;51.154;13.812;2022-10-31T10:40:18;100044.53;;;20.74;60.29
39267;BME280;24967;51.154;13.812;2022-10-31T10:42:55;100041.63;;;20.69;61.59
39267;BME280;24967;51.154;13.812;2022-10-31T10:45:40;100039.19;;;21.01;59.14
39267;BME280;24967;51.154;13.812;2022-10-31T10:48:32;100036.72;;;21.13;57.82
39267;BME280;24967;51.154;13.812;2022-10-31T10:51:06;100041.06;;;21.07;58.93
39267;BME280;24967;51.154;13.812;2022-10-31T10:53:44;100043.16;;;21.25;57.66
39267;BME280;24967;51.154;13.812;2022-10-31T10:56:36;100032.34;;;21.32;57.60
39267;BME280;24967;51.154;13.812;2022-10-31T10:59:04;100034.59;;;21.15;59.40
39267;BME280;24967;51.154;13.812;2022-10-31T11:01:31;100039.81;;;21.23;59.37
39267;BME280;24967;51.154;13.812;2022-10-31T11:03:58;100026.31;;;21.16;58.97
39267;BME280;24967;51.154;13.812;2022-10-31T11:06:26;100021.97;;;21.48;58.65
39267;BME280;24967;51.154;13.812;2022-10-31T11:08:52;100020.69;;;21.58;57.70
39267;BME280;24967;51.154;13.812;2022-10-31T11:11:24;100012.97;;;21.61;59.48
39267;BME280;24967;51.154;13.812;2022-10-31T11:13:57;100016.72;;;21.73;57.42
39267;BME280;24967;51.154;13.812;2022-10-31T11:16:31;100024.22;;;21.65;57.68
39267;BME280;24967;51.154;13.812;2022-10-31T11:19:08;100006.94;;;21.66;58.08
39267;BME280;24967;51.154;13.812;2022-10-31T11:21:41;100005.28;;;21.58;57.54
39267;BME280;24967;51.154;13.812;2022-10-31T11:24:14;100008.56;;;21.80;57.58
39267;BME280;24967;51.154;13.812;2022-10-31T11:26:42;100005.06;;;21.26;57.31
39267;BME280;24967;51.154;13.812;2022-10-31T11:29:14;99996.75;;;21.61;58.33
39267;BME280;24967;51.154;13.812;2022-10-31T11:31:41;100003.94;;;21.87;58.22
39267;BME280;24967;51.154;13.812;2022-10-31T11:34:16;99998.34;;;21.89;58.91
39267;BME280;24967;51.154;13.812;2022-10-31T11:36:46;99992.19;;;22.20;59.23
39267;BME280;24967;51.154;13.812;2022-10-31T11:39:17;99988.94;;;21.98;57.31
39267;BME280;24967;51.154;13.812;2022-10-31T11:41:44;99987.81;;;22.26;57.21
39267;BME280;24967;51.154;13.812;2022-10-31T11:44:14;99978.75;;;22.45;57.80
39267;BME280;24967;51.154;13.812;2022-10-31T11:46:44;99978.44;;;22.60;57.90
39267;BME280;24967;51.154;13.812;2022-10-31T11:49:15;99985.81;;;22.78;58.47
39267;BME280;24967;51.154;13.812;2022-10-31T11:51:42;99987.25;;;22.80;56.19
39267;BME280;24967;51.154;13.812;2022-10-31T11:54:21;99980.53;;;22.90;55.74
39267;BME280;24967;51.154;13.812;2022-10-31T11:56:48;99982.06;;;22.79;56.03
39267;BME280;24967;51.154;13.812;2022-10-31T11:59:18;99974.81;;;23.04;55.67
39267;BME280;24967;51.154;13.812;2022-10-31T12:01:48;99972.06;;;23.29;53.45
39267;BME280;24967;51.154;13.812;2022-10-31T12:04:15;99966.47;;;23.06;52.94
39267;BME280;24967;51.154;13.812;2022-10-31T12:06:44;99967.06;;;22.76;54.92
39267;BME280;24967;51.154;13.812;2022-10-31T12:09:24;99966.41;;;22.81;55.73
39267;BME280;24967;51.154;13.812;2022-10-31T12:12:01;99963.34;;;23.02;55.39
39267;BME280;24967;51.154;13.812;2022-10-31T12:14:33;99964.34;;;23.08;56.14
39267;BME280;24967;51.154;13.812;2022-10-31T12:17:06;99958.91;;;23.08;55.00
39267;BME280;24967;51.154;13.812;2022-10-31T12:19:42;99953.38;;;23.21;54.06
39267;BME280;24967;51.154;13.812;2022-10-31T12:22:16;99956.25;;;23.26;53.27
39267;BME280;24967;51.154;13.812;2022-10-31T12:24:59;99943.38;;;23.22;53.42
39267;BME280;24967;51.154;13.812;2022-10-31T12:27:38;99943.19;;;23.17;53.89
39267;BME280;24967;51.154;13.812;2022-10-31T12:30:19;99940.41;;;23.23;53.85
39267;BME280;24967;51.154;13.812;2022-10-31T12:32:59;99939.47;;;23.36;52.76
39267;BME280;24967;51.154;13.812;2022-10-31T12:35:39;99936.34;;;23.14;53.68
39267;BME280;24967;51.154;13.812;2022-10-31T12:38:31;99929.63;;;23.17;54.26
39267;BME280;24967;51.154;13.812;2022-10-31T12:41:22;99929.16;;;23.01;54.14
39267;BME280;24967;51.154;13.812;2022-10-31T12:43:57;99928.19;;;22.89;54.58
39267;BME280;24967;51.154;13.812;2022-10-31T12:46:38;99928.16;;;22.96;54.64
39267;BME280;24967;51.154;13.812;2022-10-31T12:49:22;99925.69;;;22.94;53.89
39267;BME280;24967;51.154;13.812;2022-10-31T12:52:00;99924.19;;;22.98;53.88
39267;BME280;24967;51.154;13.812;2022-10-31T12:54:49;99922.75;;;22.96;54.22
39267;BME280;24967;51.154;13.812;2022-10-31T12:57:23;99915.09;;;23.11;55.05
39267;BME280;24967;51.154;13.812;2022-10-31T12:59:57;99921.03;;;23.01;54.50
39267;BME280;24967;51.154;13.812;2022-10-31T13:02:35;99914.84;;;22.94;54.92